sensor_id;sensor_type;location;lat;lon;timestamp;P1;durP1;ratioP1;P2;durP2;ratioP2
4595;SDS011;2310;49.978;8.742;2023-06-24T00:03:52;9.67;;;8.77;;
4595;SDS011;2310;49.978;8.742;2023-06-24T00:07:54;9.97;;;8.97;;
4595;SDS011;2310;49.978;8.742;2023-06-24T00:11:57;9.90;;;8.77;;
4595;SDS011;2310;49.978;8.742;2023-06-24T00:16:02;11.20;;;8.93;;
4595;SDS011;2310;49.978;8.742;2023-06-24T00:20:04;9.90;;;8.90;;
4595;SDS011;2310;49.978;8.742;2023-06-24T00:24:07;9.20;;;8.00;;
4595;SDS011;2310;49.978;8.742;2023-06-24T00:28:10;10.50;;;8.47;;
4595;SDS011;2310;49.978;8.742;2023-06-24T00:32:12;9.77;;;8.40;;
4595;SDS011;2310;49.978;8.742;2023-06-24T00:36:13;11.10;;;7.53;;
4595;SDS011;2310;49.978;8.742;2023-06-24T00:40:15;8.83;;;7.73;;
4595;SDS011;2310;49.978;8.742;2023-06-24T00:44:17;10.00;;;8.13;;
4595;SDS011;2310;49.978;8.742;2023-06-24T00:48:19;10.53;;;9.43;;
4595;SDS011;2310;49.978;8.742;2023-06-24T00:52:22;10.93;;;9.20;;
4595;SDS011;2310;49.978;8.742;2023-06-24T00:56:30;9.63;;;8.60;;
4595;SDS011;2310;49.978;8.742;2023-06-24T01:00:28;9.27;;;8.37;;
4595;SDS011;2310;49.978;8.742;2023-06-24T01:04:32;9.93;;;8.60;;
4595;SDS011;2310;49.978;8.742;2023-06-24T01:08:35;12.00;;;10.23;;
4595;SDS011;2310;49.978;8.742;2023-06-24T01:12:37;10.77;;;9.60;;
4595;SDS011;2310;49.978;8.742;2023-06-24T01:20:50;10.47;;;9.43;;
4595;SDS011;2310;49.978;8.742;2023-06-24T01:38:13;10.00;;;9.00;;
4595;SDS011;2310;49.978;8.742;2023-06-24T01:42:19;10.43;;;9.13;;
4595;SDS011;2310;49.978;8.742;2023-06-24T01:46:23;9.93;;;8.83;;
4595;SDS011;2310;49.978;8.742;2023-06-24T01:50:29;9.40;;;8.43;;
4595;SDS011;2310;49.978;8.742;2023-06-24T01:54:34;10.23;;;8.90;;
4595;SDS011;2310;49.978;8.742;2023-06-24T01:58:38;9.60;;;8.70;;
4595;SDS011;2310;49.978;8.742;2023-06-24T02:02:41;10.70;;;9.57;;
4595;SDS011;2310;49.978;8.742;2023-06-24T02:06:47;11.30;;;8.90;;
4595;SDS011;2310;49.978;8.742;2023-06-24T02:10:50;12.67;;;8.83;;
4595;SDS011;2310;49.978;8.742;2023-06-24T02:14:54;10.00;;;8.77;;
4595;SDS011;2310;49.978;8.742;2023-06-24T02:18:57;10.17;;;9.17;;
4595;SDS011;2310;49.978;8.742;2023-06-24T02:23:00;9.53;;;8.00;;
4595;SDS011;2310;49.978;8.742;2023-06-24T02:27:03;8.93;;;8.13;;
4595;SDS011;2310;49.978;8.742;2023-06-24T02:31:08;10.33;;;9.27;;
4595;SDS011;2310;49.978;8.742;2023-06-24T02:35:12;12.40;;;11.10;;
4595;SDS011;2310;49.978;8.742;2023-06-24T02:39:14;11.47;;;9.70;;
4595;SDS011;2310;49.978;8.742;2023-06-24T02:43:16;10.63;;;9.63;;
4595;SDS011;2310;49.978;8.742;2023-06-24T02:47:18;11.23;;;9.50;;
4595;SDS011;2310;49.978;8.742;2023-06-24T02:51:21;10.03;;;9.00;;
4595;SDS011;2310;49.978;8.742;2023-06-24T02:55:23;12.10;;;10.53;;
4595;SDS011;2310;49.978;8.742;2023-06-24T02:59:24;11.43;;;10.23;;
4595;SDS011;2310;49.978;8.742;2023-06-24T03:03:26;10.93;;;9.83;;
4595;SDS011;2310;49.978;8.742;2023-06-24T03:07:29;11.40;;;8.97;;
4595;SDS011;2310;49.978;8.742;2023-06-24T03:11:31;10.07;;;8.97;;
4595;SDS011;2310;49.978;8.742;2023-06-24T03:15:34;9.80;;;8.80;;
4595;SDS011;2310;49.978;8.742;2023-06-24T03:19:37;10.30;;;9.23;;
4595;SDS011;2310;49.978;8.742;2023-06-24T03:23:38;10.50;;;9.13;;
4595;SDS011;2310;49.978;8.742;2023-06-24T03:27:41;10.50;;;9.40;;
4595;SDS011;2310;49.978;8.742;2023-06-24T03:31:42;9.57;;;8.57;;
4595;SDS011;2310;49.978;8.742;2023-06-24T03:35:45;10.50;;;9.30;;
4595;SDS011;2310;49.978;8.742;2023-06-24T03:39:46;9.33;;;8.40;;
4595;SDS011;2310;49.978;8.742;2023-06-24T03:43:48;10.13;;;8.90;;
4595;SDS011;2310;49.978;8.742;2023-06-24T03:47:49;9.37;;;8.47;;
4595;SDS011;2310;49.978;8.742;2023-06-24T03:51:50;10.10;;;9.10;;
4595;SDS011;2310;49.978;8.742;2023-06-24T03:55:52;10.93;;;9.70;;
4595;SDS011;2310;49.978;8.742;2023-06-24T03:59:53;9.60;;;8.70;;
4595;SDS011;2310;49.978;8.742;2023-06-24T04:03:54;10.53;;;9.50;;
4595;SDS011;2310;49.978;8.742;2023-06-24T04:07:56;11.17;;;10.07;;
4595;SDS011;2310;49.978;8.742;2023-06-24T04:11:58;12.87;;;11.43;;
4595;SDS011;2310;49.978;8.742;2023-06-24T04:15:59;10.40;;;9.40;;
4595;SDS011;2310;49.978;8.742;2023-06-24T04:20:00;11.17;;;10.17;;
4595;SDS011;2310;49.978;8.742;2023-06-24T04:24:04;10.80;;;9.80;;
4595;SDS011;2310;49.978;8.742;2023-06-24T04:28:05;11.90;;;10.17;;
4595;SDS011;2310;49.978;8.742;2023-06-24T04:32:07;12.37;;;11.17;;
4595;SDS011;2310;49.978;8.742;2023-06-24T04:36:09;10.87;;;9.17;;
4595;SDS011;2310;49.978;8.742;2023-06-24T04:40:10;11.80;;;10.70;;
4595;SDS011;2310;49.978;8.742;2023-06-24T04:44:11;11.30;;;9.70;;
4595;SDS011;2310;49.978;8.742;2023-06-24T04:48:13;12.07;;;10.97;;
4595;SDS011;2310;49.978;8.742;2023-06-24T04:52:14;10.90;;;9.80;;
4595;SDS011;2310;49.978;8.742;2023-06-24T04:56:15;10.60;;;9.50;;
4595;SDS011;2310;49.978;8.742;2023-06-24T05:00:17;11.37;;;9.80;;
4595;SDS011;2310;49.978;8.742;2023-06-24T05:04:19;11.47;;;10.37;;
4595;SDS011;2310;49.978;8.742;2023-06-24T05:08:21;11.40;;;10.20;;
4595;SDS011;2310;49.978;8.742;2023-06-24T05:12:22;10.53;;;9.50;;
4595;SDS011;2310;49.978;8.742;2023-06-24T05:16:23;10.37;;;9.37;;
4595;SDS011;2310;49.978;8.742;2023-06-24T05:20:25;12.30;;;11.20;;
4595;SDS011;2310;49.978;8.742;2023-06-24T05:24:27;11.83;;;10.63;;
4595;SDS011;2310;49.978;8.742;2023-06-24T05:28:28;11.30;;;10.27;;
4595;SDS011;2310;49.978;8.742;2023-06-24T05:32:29;11.10;;;10.10;;
4595;SDS011;2310;49.978;8.742;2023-06-24T05:36:31;10.63;;;9.63;;
4595;SDS011;2310;49.978;8.742;2023-06-24T05:40:32;11.70;;;10.53;;
4595;SDS011;2310;49.978;8.742;2023-06-24T05:44:33;11.20;;;10.20;;
4595;SDS011;2310;49.978;8.742;2023-06-24T05:48:35;11.57;;;10.47;;
4595;SDS011;2310;49.978;8.742;2023-06-24T05:52:36;10.90;;;9.90;;
4595;SDS011;2310;49.978;8.742;2023-06-24T05:56:38;9.77;;;8.90;;
4595;SDS011;2310;49.978;8.742;2023-06-24T06:00:41;10.17;;;9.10;;
4595;SDS011;2310;49.978;8.742;2023-06-24T06:04:43;11.80;;;10.70;;
4595;SDS011;2310;49.978;8.742;2023-06-24T06:08:44;12.47;;;11.17;;
4595;SDS011;2310;49.978;8.742;2023-06-24T06:12:45;11.07;;;10.00;;
4595;SDS011;2310;49.978;8.742;2023-06-24T06:16:47;12.40;;;10.87;;
4595;SDS011;2310;49.978;8.742;2023-06-24T06:20:48;11.90;;;10.80;;
4595;SDS011;2310;49.978;8.742;2023-06-24T06:24:49;9.07;;;8.27;;
4595;SDS011;2310;49.978;8.742;2023-06-24T06:28:51;10.97;;;9.90;;
4595;SDS011;2310;49.978;8.742;2023-06-24T06:32:54;10.00;;;9.00;;
4595;SDS011;2310;49.978;8.742;2023-06-24T06:36:55;11.30;;;10.20;;
4595;SDS011;2310;49.978;8.742;2023-06-24T06:40:56;10.80;;;9.70;;
4595;SDS011;2310;49.978;8.742;2023-06-24T06:44:58;9.00;;;8.10;;
4595;SDS011;2310;49.978;8.742;2023-06-24T06:48:59;9.40;;;8.40;;
4595;SDS011;2310;49.978;8.742;2023-06-24T06:53:00;9.27;;;8.37;;
4595;SDS011;2310;49.978;8.742;2023-06-24T06:57:02;9.60;;;8.60;;
4595;SDS011;2310;49.978;8.742;2023-06-24T07:01:07;7.57;;;6.73;;
4595;SDS011;2310;49.978;8.742;2023-06-24T07:05:08;8.83;;;7.80;;
4595;SDS011;2310;49.978;8.742;2023-06-24T07:09:10;7.40;;;6.57;;
4595;SDS011;2310;49.978;8.742;2023-06-24T07:13:12;8.93;;;8.03;;
4595;SDS011;2310;49.978;8.742;2023-06-24T07:17:13;11.30;;;9.07;;
4595;SDS011;2310;49.978;8.742;2023-06-24T07:21:15;8.20;;;7.40;;
4595;SDS011;2310;49.978;8.742;2023-06-24T07:25:16;10.50;;;9.47;;
4595;SDS011;2310;49.978;8.742;2023-06-24T07:29:18;9.37;;;8.37;;
4595;SDS011;2310;49.978;8.742;2023-06-24T07:33:19;9.40;;;8.57;;
4595;SDS011;2310;49.978;8.742;2023-06-24T07:37:21;11.57;;;10.03;;
4595;SDS011;2310;49.978;8.742;2023-06-24T07:41:24;9.30;;;8.37;;
4595;SDS011;2310;49.978;8.742;2023-06-24T07:45:25;10.00;;;8.40;;
4595;SDS011;2310;49.978;8.742;2023-06-24T07:49:27;10.07;;;9.07;;
4595;SDS011;2310;49.978;8.742;2023-06-24T07:53:28;9.13;;;8.20;;
4595;SDS011;2310;49.978;8.742;2023-06-24T07:57:29;8.60;;;7.20;;
4595;SDS011;2310;49.978;8.742;2023-06-24T08:01:31;9.70;;;8.40;;
4595;SDS011;2310;49.978;8.742;2023-06-24T08:05:32;9.00;;;7.33;;
4595;SDS011;2310;49.978;8.742;2023-06-24T08:09:34;8.30;;;7.10;;
4595;SDS011;2310;49.978;8.742;2023-06-24T08:13:35;8.70;;;7.80;;
4595;SDS011;2310;49.978;8.742;2023-06-24T08:17:37;8.67;;;7.37;;
4595;SDS011;2310;49.978;8.742;2023-06-24T08:21:38;8.37;;;7.47;;
4595;SDS011;2310;49.978;8.742;2023-06-24T08:25:40;9.40;;;7.37;;
4595;SDS011;2310;49.978;8.742;2023-06-24T08:29:41;8.03;;;7.23;;
4595;SDS011;2310;49.978;8.742;2023-06-24T08:33:43;8.10;;;7.00;;
4595;SDS011;2310;49.978;8.742;2023-06-24T08:37:48;8.23;;;7.40;;
4595;SDS011;2310;49.978;8.742;2023-06-24T08:41:50;7.47;;;5.80;;
4595;SDS011;2310;49.978;8.742;2023-06-24T08:45:51;7.10;;;6.03;;
4595;SDS011;2310;49.978;8.742;2023-06-24T08:50:01;7.40;;;5.93;;
4595;SDS011;2310;49.978;8.742;2023-06-24T08:54:05;7.37;;;6.13;;
4595;SDS011;2310;49.978;8.742;2023-06-24T08:58:10;6.77;;;6.07;;
4595;SDS011;2310;49.978;8.742;2023-06-24T09:02:11;8.30;;;6.67;;
4595;SDS011;2310;49.978;8.742;2023-06-24T09:06:14;7.13;;;6.40;;
4595;SDS011;2310;49.978;8.742;2023-06-24T09:10:29;7.70;;;6.67;;
4595;SDS011;2310;49.978;8.742;2023-06-24T09:14:32;9.37;;;8.40;;
4595;SDS011;2310;49.978;8.742;2023-06-24T09:18:34;8.43;;;7.50;;
4595;SDS011;2310;49.978;8.742;2023-06-24T09:22:36;7.03;;;6.30;;
4595;SDS011;2310;49.978;8.742;2023-06-24T09:26:42;7.83;;;7.00;;
4595;SDS011;2310;49.978;8.742;2023-06-24T09:30:45;7.40;;;6.30;;
4595;SDS011;2310;49.978;8.742;2023-06-24T09:34:47;7.03;;;6.33;;
4595;SDS011;2310;49.978;8.742;2023-06-24T09:38:49;7.97;;;7.20;;
4595;SDS011;2310;49.978;8.742;2023-06-24T09:42:55;7.73;;;6.97;;
4595;SDS011;2310;49.978;8.742;2023-06-24T09:46:57;6.70;;;5.70;;
4595;SDS011;2310;49.978;8.742;2023-06-24T09:50:59;10.03;;;6.03;;
4595;SDS011;2310;49.978;8.742;2023-06-24T09:55:02;9.27;;;6.33;;
4595;SDS011;2310;49.978;8.742;2023-06-24T09:59:06;7.07;;;5.53;;
4595;SDS011;2310;49.978;8.742;2023-06-24T10:03:09;6.63;;;6.03;;
4595;SDS011;2310;49.978;8.742;2023-06-24T10:07:11;6.40;;;5.80;;
4595;SDS011;2310;49.978;8.742;2023-06-24T10:11:13;8.17;;;6.40;;
4595;SDS011;2310;49.978;8.742;2023-06-24T10:15:15;7.70;;;5.40;;
4595;SDS011;2310;49.978;8.742;2023-06-24T10:19:21;6.40;;;5.80;;
4595;SDS011;2310;49.978;8.742;2023-06-24T10:23:41;8.83;;;5.90;;
4595;SDS011;2310;49.978;8.742;2023-06-24T10:27:53;7.40;;;6.20;;
4595;SDS011;2310;49.978;8.742;2023-06-24T10:31:55;6.57;;;5.87;;
4595;SDS011;2310;49.978;8.742;2023-06-24T10:36:00;6.73;;;6.03;;
4595;SDS011;2310;49.978;8.742;2023-06-24T10:40:02;5.90;;;5.30;;
4595;SDS011;2310;49.978;8.742;2023-06-24T10:44:14;7.43;;;5.90;;
4595;SDS011;2310;49.978;8.742;2023-06-24T10:48:13;8.20;;;6.80;;
4595;SDS011;2310;49.978;8.742;2023-06-24T10:52:14;6.67;;;5.97;;
4595;SDS011;2310;49.978;8.742;2023-06-24T10:56:20;7.97;;;6.50;;
4595;SDS011;2310;49.978;8.742;2023-06-24T11:00:21;7.20;;;6.27;;
4595;SDS011;2310;49.978;8.742;2023-06-24T11:04:23;7.30;;;6.03;;
4595;SDS011;2310;49.978;8.742;2023-06-24T11:08:25;8.73;;;5.60;;
4595;SDS011;2310;49.978;8.742;2023-06-24T11:12:27;9.13;;;7.83;;
4595;SDS011;2310;49.978;8.742;2023-06-24T11:16:31;7.77;;;4.90;;
4595;SDS011;2310;49.978;8.742;2023-06-24T11:20:32;5.53;;;4.90;;
4595;SDS011;2310;49.978;8.742;2023-06-24T11:24:34;6.73;;;5.43;;
4595;SDS011;2310;49.978;8.742;2023-06-24T11:28:37;6.93;;;5.30;;
4595;SDS011;2310;49.978;8.742;2023-06-24T11:32:39;6.60;;;5.50;;
4595;SDS011;2310;49.978;8.742;2023-06-24T11:36:41;7.43;;;6.20;;
4595;SDS011;2310;49.978;8.742;2023-06-24T11:40:43;7.47;;;6.13;;
4595;SDS011;2310;49.978;8.742;2023-06-24T11:44:48;7.93;;;5.73;;
4595;SDS011;2310;49.978;8.742;2023-06-24T11:48:50;7.13;;;5.53;;
4595;SDS011;2310;49.978;8.742;2023-06-24T11:52:54;6.73;;;6.03;;
4595;SDS011;2310;49.978;8.742;2023-06-24T11:56:55;6.40;;;5.73;;
4595;SDS011;2310;49.978;8.742;2023-06-24T12:00:56;7.60;;;5.67;;
4595;SDS011;2310;49.978;8.742;2023-06-24T12:04:58;7.40;;;5.20;;
4595;SDS011;2310;49.978;8.742;2023-06-24T12:08:59;6.83;;;6.00;;
4595;SDS011;2310;49.978;8.742;2023-06-24T12:13:01;5.90;;;5.27;;
4595;SDS011;2310;49.978;8.742;2023-06-24T12:17:04;7.23;;;5.10;;
4595;SDS011;2310;49.978;8.742;2023-06-24T12:21:05;6.40;;;5.80;;
4595;SDS011;2310;49.978;8.742;2023-06-24T12:25:07;6.47;;;5.87;;
4595;SDS011;2310;49.978;8.742;2023-06-24T12:29:09;6.53;;;5.53;;
4595;SDS011;2310;49.978;8.742;2023-06-24T12:33:10;6.13;;;5.37;;
4595;SDS011;2310;49.978;8.742;2023-06-24T12:37:12;7.77;;;6.47;;
4595;SDS011;2310;49.978;8.742;2023-06-24T12:41:13;6.23;;;5.30;;
4595;SDS011;2310;49.978;8.742;2023-06-24T12:45:15;6.17;;;5.57;;
4595;SDS011;2310;49.978;8.742;2023-06-24T12:49:16;7.20;;;6.30;;
4595;SDS011;2310;49.978;8.742;2023-06-24T12:53:17;8.07;;;5.73;;
4595;SDS011;2310;49.978;8.742;2023-06-24T12:57:19;11.63;;;10.63;;
4595;SDS011;2310;49.978;8.742;2023-06-24T13:01:21;6.13;;;5.53;;
4595;SDS011;2310;49.978;8.742;2023-06-24T13:05:22;5.93;;;5.33;;
4595;SDS011;2310;49.978;8.742;2023-06-24T13:09:23;7.70;;;6.90;;
4595;SDS011;2310;49.978;8.742;2023-06-24T13:13:25;6.30;;;5.23;;
4595;SDS011;2310;49.978;8.742;2023-06-24T13:17:26;6.67;;;5.37;;
4595;SDS011;2310;49.978;8.742;2023-06-24T13:21:28;7.30;;;5.57;;
4595;SDS011;2310;49.978;8.742;2023-06-24T13:25:29;7.40;;;6.27;;
4595;SDS011;2310;49.978;8.742;2023-06-24T13:29:30;6.53;;;5.57;;
4595;SDS011;2310;49.978;8.742;2023-06-24T13:33:32;6.43;;;5.83;;
4595;SDS011;2310;49.978;8.742;2023-06-24T13:37:34;8.30;;;5.83;;
4595;SDS011;2310;49.978;8.742;2023-06-24T13:41:37;7.47;;;6.67;;
4595;SDS011;2310;49.978;8.742;2023-06-24T13:45:38;6.83;;;5.80;;
4595;SDS011;2310;49.978;8.742;2023-06-24T13:49:40;6.43;;;5.63;;
4595;SDS011;2310;49.978;8.742;2023-06-24T13:53:41;7.63;;;6.00;;
4595;SDS011;2310;49.978;8.742;2023-06-24T13:57:42;6.70;;;6.10;;
4595;SDS011;2310;49.978;8.742;2023-06-24T14:01:44;7.57;;;6.23;;
4595;SDS011;2310;49.978;8.742;2023-06-24T14:05:45;6.43;;;5.83;;
4595;SDS011;2310;49.978;8.742;2023-06-24T14:09:47;6.33;;;5.60;;
4595;SDS011;2310;49.978;8.742;2023-06-24T14:13:48;6.67;;;5.97;;
4595;SDS011;2310;49.978;8.742;2023-06-24T14:17:49;7.03;;;6.33;;
4595;SDS011;2310;49.978;8.742;2023-06-24T14:21:51;7.60;;;6.17;;
4595;SDS011;2310;49.978;8.742;2023-06-24T14:25:52;7.40;;;5.93;;
4595;SDS011;2310;49.978;8.742;2023-06-24T14:29:53;7.30;;;6.50;;
4595;SDS011;2310;49.978;8.742;2023-06-24T14:33:55;6.47;;;5.80;;
4595;SDS011;2310;49.978;8.742;2023-06-24T14:37:56;7.10;;;6.40;;
4595;SDS011;2310;49.978;8.742;2023-06-24T14:41:57;7.63;;;6.33;;
4595;SDS011;2310;49.978;8.742;2023-06-24T14:45:59;7.80;;;7.00;;
4595;SDS011;2310;49.978;8.742;2023-06-24T14:50:00;6.80;;;6.20;;
4595;SDS011;2310;49.978;8.742;2023-06-24T14:54:02;8.43;;;6.37;;
4595;SDS011;2310;49.978;8.742;2023-06-24T14:58:04;7.30;;;6.60;;
4595;SDS011;2310;49.978;8.742;2023-06-24T15:02:05;8.30;;;6.80;;
4595;SDS011;2310;49.978;8.742;2023-06-24T15:06:08;7.20;;;6.50;;
4595;SDS011;2310;49.978;8.742;2023-06-24T15:10:10;13.40;;;6.77;;
4595;SDS011;2310;49.978;8.742;2023-06-24T15:14:11;8.07;;;6.53;;
4595;SDS011;2310;49.978;8.742;2023-06-24T15:18:12;8.63;;;6.53;;
4595;SDS011;2310;49.978;8.742;2023-06-24T15:22:15;7.03;;;6.00;;
4595;SDS011;2310;49.978;8.742;2023-06-24T15:26:17;7.73;;;6.93;;
4595;SDS011;2310;49.978;8.742;2023-06-24T15:30:18;6.93;;;6.07;;
4595;SDS011;2310;49.978;8.742;2023-06-24T15:34:20;6.13;;;5.53;;
4595;SDS011;2310;49.978;8.742;2023-06-24T15:38:21;8.03;;;6.80;;
4595;SDS011;2310;49.978;8.742;2023-06-24T15:42:22;7.73;;;6.83;;
4595;SDS011;2310;49.978;8.742;2023-06-24T15:46:24;9.53;;;6.90;;
4595;SDS011;2310;49.978;8.742;2023-06-24T15:50:25;8.13;;;5.80;;
4595;SDS011;2310;49.978;8.742;2023-06-24T15:54:26;12.63;;;8.03;;
4595;SDS011;2310;49.978;8.742;2023-06-24T15:58:28;13.20;;;8.00;;
4595;SDS011;2310;49.978;8.742;2023-06-24T16:02:29;7.50;;;6.80;;
4595;SDS011;2310;49.978;8.742;2023-06-24T16:06:31;9.27;;;8.37;;
4595;SDS011;2310;49.978;8.742;2023-06-24T16:10:32;10.43;;;8.07;;
4595;SDS011;2310;49.978;8.742;2023-06-24T16:14:34;8.60;;;7.70;;
4595;SDS011;2310;49.978;8.742;2023-06-24T16:18:35;10.57;;;9.57;;
4595;SDS011;2310;49.978;8.742;2023-06-24T16:22:36;8.07;;;7.27;;
4595;SDS011;2310;49.978;8.742;2023-06-24T16:26:38;7.30;;;6.57;;
4595;SDS011;2310;49.978;8.742;2023-06-24T16:30:41;8.13;;;7.27;;
4595;SDS011;2310;49.978;8.742;2023-06-24T16:34:42;9.30;;;8.40;;
4595;SDS011;2310;49.978;8.742;2023-06-24T16:38:43;9.40;;;8.50;;
4595;SDS011;2310;49.978;8.742;2023-06-24T16:42:45;9.80;;;8.73;;
4595;SDS011;2310;49.978;8.742;2023-06-24T16:46:47;11.70;;;10.57;;
4595;SDS011;2310;49.978;8.742;2023-06-24T16:50:48;8.70;;;7.80;;
4595;SDS011;2310;49.978;8.742;2023-06-24T16:54:49;9.00;;;8.10;;
4595;SDS011;2310;49.978;8.742;2023-06-24T16:58:51;8.30;;;6.70;;
4595;SDS011;2310;49.978;8.742;2023-06-24T17:02:52;7.27;;;6.57;;
4595;SDS011;2310;49.978;8.742;2023-06-24T17:06:54;7.47;;;6.70;;
4595;SDS011;2310;49.978;8.742;2023-06-24T17:10:55;12.93;;;11.60;;
4595;SDS011;2310;49.978;8.742;2023-06-24T17:14:56;9.50;;;8.37;;
4595;SDS011;2310;49.978;8.742;2023-06-24T17:18:58;10.23;;;9.23;;
4595;SDS011;2310;49.978;8.742;2023-06-24T17:22:59;7.70;;;7.00;;
4595;SDS011;2310;49.978;8.742;2023-06-24T17:27:00;6.47;;;5.83;;
4595;SDS011;2310;49.978;8.742;2023-06-24T17:31:02;6.67;;;6.07;;
4595;SDS011;2310;49.978;8.742;2023-06-24T17:35:03;8.33;;;6.47;;
4595;SDS011;2310;49.978;8.742;2023-06-24T17:39:05;7.33;;;6.60;;
4595;SDS011;2310;49.978;8.742;2023-06-24T17:43:06;6.90;;;6.20;;
4595;SDS011;2310;49.978;8.742;2023-06-24T17:47:08;7.30;;;5.40;;
4595;SDS011;2310;49.978;8.742;2023-06-24T17:51:09;7.50;;;6.40;;
4595;SDS011;2310;49.978;8.742;2023-06-24T17:55:11;7.90;;;6.70;;
4595;SDS011;2310;49.978;8.742;2023-06-24T17:59:12;7.30;;;6.60;;
4595;SDS011;2310;49.978;8.742;2023-06-24T18:03:14;7.30;;;6.60;;
4595;SDS011;2310;49.978;8.742;2023-06-24T18:07:16;9.20;;;6.37;;
4595;SDS011;2310;49.978;8.742;2023-06-24T18:11:22;7.00;;;6.07;;
4595;SDS011;2310;49.978;8.742;2023-06-24T18:15:23;7.77;;;6.27;;
4595;SDS011;2310;49.978;8.742;2023-06-24T18:19:24;8.60;;;6.77;;
4595;SDS011;2310;49.978;8.742;2023-06-24T18:23:26;8.87;;;6.10;;
4595;SDS011;2310;49.978;8.742;2023-06-24T18:27:27;6.90;;;6.20;;
4595;SDS011;2310;49.978;8.742;2023-06-24T18:31:28;7.00;;;6.30;;
4595;SDS011;2310;49.978;8.742;2023-06-24T18:35:30;7.83;;;6.97;;
4595;SDS011;2310;49.978;8.742;2023-06-24T18:39:31;8.83;;;5.73;;
4595;SDS011;2310;49.978;8.742;2023-06-24T18:43:33;8.80;;;6.50;;
4595;SDS011;2310;49.978;8.742;2023-06-24T18:47:35;7.47;;;6.23;;
4595;SDS011;2310;49.978;8.742;2023-06-24T18:51:37;8.43;;;6.50;;
4595;SDS011;2310;49.978;8.742;2023-06-24T18:55:40;7.67;;;6.53;;
4595;SDS011;2310;49.978;8.742;2023-06-24T18:59:42;9.87;;;7.30;;
4595;SDS011;2310;49.978;8.742;2023-06-24T19:03:44;7.80;;;6.60;;
4595;SDS011;2310;49.978;8.742;2023-06-24T19:07:46;8.87;;;6.20;;
4595;SDS011;2310;49.978;8.742;2023-06-24T19:11:47;8.50;;;6.90;;
4595;SDS011;2310;49.978;8.742;2023-06-24T19:15:48;8.23;;;7.37;;
4595;SDS011;2310;49.978;8.742;2023-06-24T19:19:50;7.37;;;6.70;;
4595;SDS011;2310;49.978;8.742;2023-06-24T19:23:51;8.07;;;7.27;;
4595;SDS011;2310;49.978;8.742;2023-06-24T19:27:53;7.33;;;6.63;;
4595;SDS011;2310;49.978;8.742;2023-06-24T19:31:54;8.00;;;7.20;;
4595;SDS011;2310;49.978;8.742;2023-06-24T19:35:56;8.30;;;7.50;;
4595;SDS011;2310;49.978;8.742;2023-06-24T19:39:57;8.70;;;7.23;;
4595;SDS011;2310;49.978;8.742;2023-06-24T19:44:02;7.83;;;6.83;;
4595;SDS011;2310;49.978;8.742;2023-06-24T19:48:07;16.83;;;15.37;;
4595;SDS011;2310;49.978;8.742;2023-06-24T19:52:09;13.40;;;11.53;;
4595;SDS011;2310;49.978;8.742;2023-06-24T19:56:10;9.50;;;8.60;;
4595;SDS011;2310;49.978;8.742;2023-06-24T20:00:12;8.70;;;7.80;;
4595;SDS011;2310;49.978;8.742;2023-06-24T20:04:14;9.83;;;8.10;;
4595;SDS011;2310;49.978;8.742;2023-06-24T20:08:16;9.13;;;8.23;;
4595;SDS011;2310;49.978;8.742;2023-06-24T20:12:17;9.53;;;8.63;;
4595;SDS011;2310;49.978;8.742;2023-06-24T20:16:18;10.57;;;9.47;;
4595;SDS011;2310;49.978;8.742;2023-06-24T20:20:20;13.17;;;9.60;;
4595;SDS011;2310;49.978;8.742;2023-06-24T20:24:21;10.93;;;9.80;;
4595;SDS011;2310;49.978;8.742;2023-06-24T20:28:22;9.23;;;8.33;;
4595;SDS011;2310;49.978;8.742;2023-06-24T20:32:24;10.27;;;8.57;;
4595;SDS011;2310;49.978;8.742;2023-06-24T20:36:25;9.50;;;8.43;;
4595;SDS011;2310;49.978;8.742;2023-06-24T20:40:26;8.23;;;7.50;;
4595;SDS011;2310;49.978;8.742;2023-06-24T20:44:28;10.50;;;8.30;;
4595;SDS011;2310;49.978;8.742;2023-06-24T20:48:29;9.20;;;7.90;;
4595;SDS011;2310;49.978;8.742;2023-06-24T20:52:30;9.00;;;8.10;;
4595;SDS011;2310;49.978;8.742;2023-06-24T20:56:32;9.90;;;8.90;;
4595;SDS011;2310;49.978;8.742;2023-06-24T21:00:34;10.30;;;9.30;;
4595;SDS011;2310;49.978;8.742;2023-06-24T21:04:39;9.97;;;8.80;;
4595;SDS011;2310;49.978;8.742;2023-06-24T21:08:40;10.83;;;8.63;;
4595;SDS011;2310;49.978;8.742;2023-06-24T21:12:42;8.93;;;7.80;;
4595;SDS011;2310;49.978;8.742;2023-06-24T21:16:46;9.80;;;8.80;;
4595;SDS011;2310;49.978;8.742;2023-06-24T21:20:48;9.70;;;8.70;;
4595;SDS011;2310;49.978;8.742;2023-06-24T21:24:50;9.73;;;8.83;;
4595;SDS011;2310;49.978;8.742;2023-06-24T21:28:51;10.60;;;9.60;;
4595;SDS011;2310;49.978;8.742;2023-06-24T21:32:52;10.13;;;9.13;;
4595;SDS011;2310;49.978;8.742;2023-06-24T21:36:54;9.90;;;8.90;;
4595;SDS011;2310;49.978;8.742;2023-06-24T21:40:55;8.90;;;7.97;;
4595;SDS011;2310;49.978;8.742;2023-06-24T21:44:57;12.07;;;9.50;;
4595;SDS011;2310;49.978;8.742;2023-06-24T21:48:58;10.77;;;9.67;;
4595;SDS011;2310;49.978;8.742;2023-06-24T21:53:00;9.60;;;8.70;;
4595;SDS011;2310;49.978;8.742;2023-06-24T21:57:01;9.23;;;8.30;;
4595;SDS011;2310;49.978;8.742;2023-06-24T22:01:03;10.60;;;9.60;;
4595;SDS011;2310;49.978;8.742;2023-06-24T22:05:04;10.57;;;8.90;;
4595;SDS011;2310;49.978;8.742;2023-06-24T22:09:08;11.00;;;7.83;;
4595;SDS011;2310;49.978;8.742;2023-06-24T22:13:09;10.33;;;8.90;;
4595;SDS011;2310;49.978;8.742;2023-06-24T22:17:10;9.13;;;7.23;;
4595;SDS011;2310;49.978;8.742;2023-06-24T22:21:12;8.10;;;7.30;;
4595;SDS011;2310;49.978;8.742;2023-06-24T22:25:13;10.77;;;8.67;;
4595;SDS011;2310;49.978;8.742;2023-06-24T22:29:14;9.13;;;8.23;;
4595;SDS011;2310;49.978;8.742;2023-06-24T22:33:16;9.33;;;8.40;;
4595;SDS011;2310;49.978;8.742;2023-06-24T22:37:18;9.00;;;8.10;;
4595;SDS011;2310;49.978;8.742;2023-06-24T22:41:19;9.10;;;8.20;;
4595;SDS011;2310;49.978;8.742;2023-06-24T22:45:20;10.27;;;9.30;;
4595;SDS011;2310;49.978;8.742;2023-06-24T22:49:22;9.77;;;8.50;;
4595;SDS011;2310;49.978;8.742;2023-06-24T22:53:24;9.30;;;8.40;;
4595;SDS011;2310;49.978;8.742;2023-06-24T22:57:25;10.33;;;9.33;;
4595;SDS011;2310;49.978;8.742;2023-06-24T23:01:26;10.13;;;9.03;;
4595;SDS011;2310;49.978;8.742;2023-06-24T23:05:28;10.03;;;8.87;;
4595;SDS011;2310;49.978;8.742;2023-06-24T23:09:29;10.10;;;9.10;;
4595;SDS011;2310;49.978;8.742;2023-06-24T23:13:32;9.97;;;8.97;;
4595;SDS011;2310;49.978;8.742;2023-06-24T23:17:34;9.87;;;8.87;;
4595;SDS011;2310;49.978;8.742;2023-06-24T23:21:36;9.93;;;9.03;;
4595;SDS011;2310;49.978;8.742;2023-06-24T23:25:41;10.20;;;8.70;;
4595;SDS011;2310;49.978;8.742;2023-06-24T23:29:44;9.33;;;8.43;;
4595;SDS011;2310;49.978;8.742;2023-06-24T23:33:48;9.27;;;8.30;;
4595;SDS011;2310;49.978;8.742;2023-06-24T23:37:50;10.80;;;9.63;;
4595;SDS011;2310;49.978;8.742;2023-06-24T23:41:52;10.60;;;9.53;;
4595;SDS011;2310;49.978;8.742;2023-06-24T23:45:54;11.17;;;10.13;;
4595;SDS011;2310;49.978;8.742;2023-06-24T23:49:56;10.70;;;9.60;;
4595;SDS011;2310;49.978;8.742;2023-06-24T23:53:57;10.37;;;9.40;;
4595;SDS011;2310;49.978;8.742;2023-06-24T23:57:59;10.60;;;9.50;;
